Time;durP1;ratioP1;P1;durP2;ratioP2;P2;SDS_P1;SDS_P2;PMS_P1;PMS_P2;Temp;Humidity;BMP_temperature;BMP_pressure;BME280_temperature;BME280_humidity;BME280_pressure;Samples;Min_cycle;Max_cycle;Signal;HPM_P1;HPM_P2
2020/12/29 00:01:05;;;;;;;7.40;5.53;;;;;;;5.76;70.05;96194.58;2152959;82;21128;-79
2020/12/29 00:04:07;;;;;;;7.87;5.17;;;;;;;5.83;69.97;96195.80;2171370;81;21162;-81
2020/12/29 00:07:08;;;;;;;6.37;5.27;;;;;;;5.83;69.78;96195.80;2176222;82;21395;-80
2020/12/29 00:10:13;;;;;;;7.90;5.80;;;;;;;5.82;69.82;96185.02;2176277;82;21117;-79
2020/12/29 00:13:15;;;;;;;7.63;5.33;;;;;;;5.82;69.65;96179.41;2176162;82;21376;-79
2020/12/29 00:16:16;;;;;;;7.80;5.70;;;;;;;5.82;69.77;96185.88;2176166;82;21404;-79
2020/12/29 00:19:17;;;;;;;9.10;5.80;;;;;;;5.82;69.77;96183.73;2175953;82;21138;-78
2020/12/29 00:22:18;;;;;;;10.37;6.13;;;;;;;5.80;69.79;96191.52;2176326;82;21421;-79
2020/12/29 00:25:19;;;;;;;8.20;5.33;;;;;;;5.78;69.68;96176.88;2175995;82;21149;-78
2020/12/29 00:28:20;;;;;;;6.97;5.33;;;;;;;5.75;69.76;96175.18;2176736;82;21122;-79
2020/12/29 00:31:24;;;;;;;7.60;5.57;;;;;;;5.75;69.79;96175.18;2176570;82;21129;-79
2020/12/29 00:34:25;;;;;;;6.40;5.17;;;;;;;5.73;69.79;96178.22;2176440;82;21114;-79
2020/12/29 00:37:26;;;;;;;8.33;5.00;;;;;;;5.72;69.69;96182.55;2176534;82;21094;-79
2020/12/29 00:40:27;;;;;;;6.43;5.07;;;;;;;5.68;69.77;96184.75;2176681;82;21126;-79
2020/12/29 00:43:28;;;;;;;7.23;4.87;;;;;;;5.63;69.77;96181.36;2176372;82;21170;-79
2020/12/29 00:46:30;;;;;;;7.27;5.40;;;;;;;5.59;69.92;96178.38;2176641;82;21118;-79
2020/12/29 00:49:31;;;;;;;8.60;5.40;;;;;;;5.60;69.99;96175.36;2176440;82;21090;-80
2020/12/29 00:52:32;;;;;;;8.30;5.93;;;;;;;5.58;69.97;96175.37;2176363;82;21142;-80
2020/12/29 00:55:33;;;;;;;7.53;5.30;;;;;;;5.55;70.03;96185.76;2176917;82;21142;-79
2020/12/29 00:58:37;;;;;;;7.60;5.30;;;;;;;5.56;70.10;96173.24;2176831;82;21114;-80
2020/12/29 01:01:38;;;;;;;6.95;5.45;;;;;;;5.55;70.06;96173.26;2176155;82;21460;-78
2020/12/29 01:04:39;;;;;;;7.30;6.10;;;;;;;5.56;70.10;96174.97;2185242;81;21182;-78
2020/12/29 01:07:40;;;;;;;6.20;5.47;;;;;;;5.58;70.06;96170.20;2179294;81;21121;-79
2020/12/29 01:10:43;;;;;;;8.47;6.20;;;;;;;5.58;69.98;96149.50;2175782;81;21122;-79
2020/12/29 01:13:44;;;;;;;7.03;5.33;;;;;;;5.59;69.93;96146.03;2174963;81;21091;-78
2020/12/29 01:16:46;;;;;;;5.30;4.73;;;;;;;5.60;69.94;96148.19;2175717;81;21134;-79
2020/12/29 01:19:47;;;;;;;7.40;5.43;;;;;;;5.61;69.83;96133.94;2175765;82;21470;-77
2020/12/29 01:22:48;;;;;;;6.97;4.97;;;;;;;5.64;69.83;96122.69;2175737;82;21170;-80
2020/12/29 01:25:49;;;;;;;8.30;5.20;;;;;;;5.68;69.63;96120.05;2175243;81;21134;-79
2020/12/29 01:28:51;;;;;;;8.13;6.43;;;;;;;5.73;69.53;96123.44;2175445;81;21138;-79
2020/12/29 01:31:52;;;;;;;5.80;5.17;;;;;;;5.76;69.35;96107.86;2175192;82;21383;-78
2020/12/29 01:34:53;;;;;;;6.00;5.10;;;;;;;5.78;69.28;96110.43;2175760;81;21126;-79
2020/12/29 01:37:54;;;;;;;6.17;5.00;;;;;;;5.82;69.04;96107.37;2175959;82;21122;-78
2020/12/29 01:40:58;;;;;;;7.60;5.67;;;;;;;5.86;68.81;96091.77;2176139;82;21391;-79
2020/12/29 01:43:59;;;;;;;7.57;5.43;;;;;;;5.94;68.85;96098.17;2176404;82;21157;-79
2020/12/29 01:47:00;;;;;;;6.37;5.33;;;;;;;5.98;68.60;96092.93;2176543;82;21923;-80
2020/12/29 01:50:01;;;;;;;8.47;5.47;;;;;;;6.05;68.52;96080.31;2176072;82;21090;-79
2020/12/29 01:53:02;;;;;;;8.33;5.47;;;;;;;6.11;68.40;96085.88;2175724;82;21118;-79
2020/12/29 01:56:04;;;;;;;8.37;5.47;;;;;;;6.16;68.33;96080.63;2175592;82;21109;-78
2020/12/29 01:59:08;;;;;;;6.57;5.33;;;;;;;6.22;68.08;96073.62;2175428;82;21079;-78
2020/12/29 02:02:08;;;;;;;5.80;5.20;;;;;;;6.27;67.68;96077.43;2175546;80;21247;-78
2020/12/29 02:05:09;;;;;;;6.03;5.03;;;;;;;6.31;67.64;96064.84;2175554;82;21143;-78
2020/12/29 02:08:10;;;;;;;5.83;4.40;;;;;;;6.35;67.35;96067.36;2175989;82;21126;-79
2020/12/29 02:11:11;;;;;;;8.43;4.77;;;;;;;6.39;67.11;96047.44;2175720;82;21134;-78
2020/12/29 02:14:12;;;;;;;6.43;4.87;;;;;;;6.47;66.79;96050.77;2160697;82;21143;-79
2020/12/29 02:17:13;;;;;;;6.10;5.00;;;;;;;6.52;66.66;96042.47;2175027;81;21118;-78
2020/12/29 02:20:14;;;;;;;5.40;4.90;;;;;;;6.55;66.89;96040.27;2175757;81;21123;-79
2020/12/29 02:23:15;;;;;;;5.27;4.77;;;;;;;6.57;66.65;96047.14;2175571;82;21166;-78
2020/12/29 02:26:18;;;;;;;6.87;4.80;;;;;;;6.61;66.71;96042.31;2175534;82;21400;-78
2020/12/29 02:29:19;;;;;;;4.87;4.37;;;;;;;6.62;66.41;96045.77;2175763;82;21078;-78
2020/12/29 02:32:21;;;;;;;7.20;4.47;;;;;;;6.68;66.09;96043.06;2175710;82;21114;-79
2020/12/29 02:35:22;;;;;;;5.97;4.60;;;;;;;6.72;66.23;96029.16;2175534;81;21118;-78
2020/12/29 02:38:23;;;;;;;8.57;4.90;;;;;;;6.77;65.96;96025.19;2175767;81;21126;-78
2020/12/29 02:41:27;;;;;;;7.83;4.53;;;;;;;6.79;65.53;96010.02;2175770;82;21125;-78
2020/12/29 02:44:28;;;;;;;8.10;5.10;;;;;;;6.84;65.85;96019.87;2175857;82;21186;-78
2020/12/29 02:47:29;;;;;;;5.47;4.50;;;;;;;6.90;65.76;96015.86;2175466;81;21388;-78
2020/12/29 02:50:31;;;;;;;5.20;3.77;;;;;;;6.95;65.55;96012.77;2175472;82;21078;-78
2020/12/29 02:53:32;;;;;;;7.43;4.97;;;;;;;6.96;65.31;96001.52;2175672;82;21127;-78
2020/12/29 02:56:33;;;;;;;7.60;5.00;;;;;;;6.97;65.21;96014.89;2175741;82;21412;-78
2020/12/29 02:59:34;;;;;;;7.43;4.40;;;;;;;7.00;65.53;96011.39;2175609;82;21158;-81
2020/12/29 03:02:36;;;;;;;7.00;4.57;;;;;;;7.01;65.40;96020.88;2174088;80;21236;-79
2020/12/29 03:05:37;;;;;;;7.30;4.40;;;;;;;7.02;65.12;96015.66;2152253;82;21123;-79
2020/12/29 03:08:38;;;;;;;4.77;4.17;;;;;;;7.06;65.10;96016.45;2152274;83;21087;-82
2020/12/29 03:11:39;;;;;;;5.60;4.90;;;;;;;7.06;64.87;95995.70;2152847;82;21115;-80
2020/12/29 03:14:40;;;;;;;4.00;3.70;;;;;;;7.07;65.09;96005.64;2151818;83;21169;-81
2020/12/29 03:17:41;;;;;;;5.23;4.40;;;;;;;7.08;65.11;95991.78;2152569;82;21103;-79
2020/12/29 03:20:42;;;;;;;4.93;3.73;;;;;;;7.10;65.26;96002.55;2152679;82;21429;-79
2020/12/29 03:23:43;;;;;;;5.43;4.53;;;;;;;7.09;65.47;96006.02;2152102;83;21418;-79
2020/12/29 03:26:44;;;;;;;8.27;3.90;;;;;;;7.11;65.49;95983.94;2151913;83;21151;-79
2020/12/29 03:29:45;;;;;;;5.23;4.03;;;;;;;7.11;65.23;95983.50;2152012;83;21123;-80
2020/12/29 03:32:46;;;;;;;4.40;4.00;;;;;;;7.13;65.73;95980.44;2151428;83;21122;-78
2020/12/29 03:35:47;;;;;;;4.90;4.07;;;;;;;7.12;65.61;95980.46;2152201;83;21389;-78
2020/12/29 03:38:51;;;;;;;4.50;4.10;;;;;;;7.10;65.65;95984.83;2151983;83;21111;-79
2020/12/29 03:41:52;;;;;;;4.20;3.83;;;;;;;7.11;65.51;95981.34;2152675;82;21119;-80
2020/12/29 03:44:53;;;;;;;3.53;3.23;;;;;;;7.10;65.38;95980.94;2152574;83;21167;-79
2020/12/29 03:47:54;;;;;;;5.43;3.43;;;;;;;7.12;65.20;95970.09;2152199;83;21433;-81
2020/12/29 03:50:55;;;;;;;3.53;3.23;;;;;;;7.11;65.26;95964.48;2152589;82;21111;-78
2020/12/29 03:53:56;;;;;;;4.10;3.67;;;;;;;7.07;65.13;95962.40;2152434;82;21091;-78
2020/12/29 03:56:58;;;;;;;5.07;3.80;;;;;;;7.10;65.08;95969.27;2152646;82;21119;-79
2020/12/29 03:59:59;;;;;;;6.23;3.50;;;;;;;7.07;65.20;95955.91;2152597;82;21111;-80
2020/12/29 04:03:00;;;;;;;4.97;3.40;;;;;;;7.07;65.18;95961.10;2152168;82;21178;-79
2020/12/29 04:06:02;;;;;;;4.00;3.40;;;;;;;7.07;65.21;95956.36;2161014;82;21086;-78
2020/12/29 04:09:03;;;;;;;4.83;3.90;;;;;;;7.05;65.12;95949.05;2175632;82;21122;-79
2020/12/29 04:12:04;;;;;;;5.67;4.13;;;;;;;7.06;65.67;95949.46;2175313;82;21138;-79
2020/12/29 04:15:05;;;;;;;7.47;3.60;;;;;;;7.06;65.49;95940.39;2175949;81;21126;-78
2020/12/29 04:18:07;;;;;;;6.37;3.13;;;;;;;7.07;65.64;95935.16;2175154;82;21229;-78
2020/12/29 04:21:08;;;;;;;4.00;3.60;;;;;;;7.05;65.36;95924.41;2175896;81;21408;-78
2020/12/29 04:24:09;;;;;;;5.37;3.37;;;;;;;7.05;65.59;95924.41;2175046;81;21268;-78
2020/12/29 04:27:10;;;;;;;3.90;3.30;;;;;;;7.08;65.39;95913.97;2175236;82;21400;-78
2020/12/29 04:30:11;;;;;;;3.53;3.00;;;;;;;7.11;65.50;95905.69;2175318;81;21135;-79
2020/12/29 04:33:12;;;;;;;7.27;3.73;;;;;;;7.11;65.50;95905.69;2175513;81;21091;-78
2020/12/29 04:36:13;;;;;;;4.10;3.27;;;;;;;7.12;65.73;95902.20;2175179;82;21187;-78
2020/12/29 04:39:14;;;;;;;3.97;3.00;;;;;;;7.12;65.92;95898.75;2174242;81;21486;-81
2020/12/29 04:42:15;;;;;;;3.20;2.87;;;;;;;7.13;65.96;95900.02;2174035;81;21142;-79
2020/12/29 04:45:16;;;;;;;4.67;3.30;;;;;;;7.11;66.18;95891.42;2173392;82;21118;-79
2020/12/29 04:48:17;;;;;;;3.30;3.00;;;;;;;7.09;66.26;95876.33;2173732;82;21118;-79
2020/12/29 04:51:19;;;;;;;5.17;3.30;;;;;;;7.08;66.55;95882.41;2173329;82;21122;-79
2020/12/29 04:54:20;;;;;;;3.20;2.90;;;;;;;7.05;66.65;95879.02;2173020;82;21135;-79
2020/12/29 04:57:21;;;;;;;3.50;3.20;;;;;;;7.06;66.83;95880.73;2173539;81;21118;-79
2020/12/29 05:00:22;;;;;;;4.77;3.20;;;;;;;7.03;66.97;95877.31;2173249;82;21126;-78
2020/12/29 05:03:23;;;;;;;3.27;3.00;;;;;;;7.03;67.03;95880.36;2172571;80;21480;-78
2020/12/29 05:06:24;;;;;;;3.33;3.03;;;;;;;7.04;67.37;95884.66;2173211;81;21122;-78
2020/12/29 05:09:25;;;;;;;3.60;2.70;;;;;;;7.04;67.49;95878.17;2172556;81;21172;-77
2020/12/29 05:12:26;;;;;;;3.00;2.50;;;;;;;7.05;67.69;95877.73;2172739;82;21090;-79
2020/12/29 05:15:27;;;;;;;3.17;2.53;;;;;;;7.11;67.79;95885.37;2173280;81;21126;-79
2020/12/29 05:18:28;;;;;;;3.40;2.80;;;;;;;7.11;67.85;95880.19;2173143;81;21366;-79
2020/12/29 05:21:29;;;;;;;3.03;2.73;;;;;;;7.12;68.05;95880.16;2172937;81;21126;-79
2020/12/29 05:24:30;;;;;;;2.70;2.50;;;;;;;7.13;68.62;95891.38;2172713;82;21153;-78
2020/12/29 05:27:31;;;;;;;2.77;2.47;;;;;;;7.13;68.62;95891.38;2171822;82;21079;-78
2020/12/29 05:30:33;;;;;;;2.83;2.53;;;;;;;7.10;68.84;95895.34;2172007;82;21216;-78
2020/12/29 05:33:34;;;;;;;5.33;2.93;;;;;;;7.07;69.53;95891.52;2173019;81;21412;-78
2020/12/29 05:36:35;;;;;;;3.57;2.77;;;;;;;7.02;69.84;95889.88;2172562;81;21110;-78
2020/12/29 05:39:36;;;;;;;3.30;2.57;;;;;;;6.99;70.09;95891.23;2172873;82;21253;-77
2020/12/29 05:42:37;;;;;;;4.43;2.60;;;;;;;6.97;70.69;95890.86;2173460;81;21174;-79
2020/12/29 05:45:38;;;;;;;5.70;2.70;;;;;;;6.93;70.67;95903.45;2173222;81;21114;-77
2020/12/29 05:48:39;;;;;;;3.23;2.70;;;;;;;6.91;71.16;95893.55;2173523;82;21114;-79
2020/12/29 05:51:40;;;;;;;4.30;2.50;;;;;;;6.82;72.06;95894.59;2173303;82;21114;-79
2020/12/29 05:54:41;;;;;;;2.40;2.20;;;;;;;6.82;72.06;95894.59;2172845;81;21090;-78
2020/12/29 05:57:42;;;;;;;2.57;2.37;;;;;;;6.82;72.49;95893.30;2172506;82;21103;-78
2020/12/29 06:00:43;;;;;;;2.30;2.00;;;;;;;6.80;72.54;95895.51;2172545;82;21432;-78
2020/12/29 06:03:44;;;;;;;2.53;2.33;;;;;;;6.78;72.86;95894.24;2170344;80;21162;-79
2020/12/29 06:06:45;;;;;;;5.20;2.07;;;;;;;6.75;73.24;95892.16;2155081;82;21832;-79
2020/12/29 06:09:47;;;;;;;4.17;2.00;;;;;;;6.75;73.24;95892.16;2149364;82;21397;-80
2020/12/29 06:12:48;;;;;;;4.30;2.17;;;;;;;6.68;73.54;95894.02;2150127;82;21099;-78
2020/12/29 06:15:49;;;;;;;2.53;1.63;;;;;;;6.68;73.54;95894.02;2150432;82;21119;-80
2020/12/29 06:18:50;;;;;;;2.47;2.13;;;;;;;6.63;73.89;95904.92;2150173;82;21134;-78
2020/12/29 06:21:51;;;;;;;6.30;1.97;;;;;;;6.62;73.78;95913.58;2149662;82;21133;-78
2020/12/29 06:24:52;;;;;;;1.90;1.70;;;;;;;6.59;73.90;95913.64;2150060;82;21151;-78
2020/12/29 06:27:53;;;;;;;1.70;1.60;;;;;;;6.56;74.30;95913.25;2149806;82;21075;-78
2020/12/29 06:30:54;;;;;;;3.00;1.97;;;;;;;6.55;74.41;95915.87;2149654;83;21123;-78
2020/12/29 06:33:55;;;;;;;3.13;1.80;;;;;;;6.54;74.45;95924.09;2149332;83;21091;-78
2020/12/29 06:36:56;;;;;;;2.50;1.90;;;;;;;6.54;74.30;95916.31;2149416;82;21127;-78
2020/12/29 06:39:57;;;;;;;4.33;2.57;;;;;;;6.53;74.57;95923.68;2148788;83;21119;-78
2020/12/29 06:42:58;;;;;;;2.97;2.50;;;;;;;6.52;74.82;95932.78;2149438;83;21147;-80
2020/12/29 06:46:00;;;;;;;2.30;2.10;;;;;;;6.51;74.80;95935.81;2149947;83;21123;-78
2020/12/29 06:49:01;;;;;;;2.93;2.70;;;;;;;6.50;74.90;95931.51;2149826;83;21123;-77
2020/12/29 06:52:02;;;;;;;3.27;2.40;;;;;;;6.50;74.99;95931.95;2149569;83;21147;-78
2020/12/29 06:55:04;;;;;;;6.43;2.73;;;;;;;6.46;75.24;95937.63;2148973;82;21284;-78
2020/12/29 06:58:05;;;;;;;3.20;2.03;;;;;;;6.43;75.44;95940.28;2148347;83;21170;-78
2020/12/29 07:01:06;;;;;;;5.17;2.87;;;;;;;6.44;75.25;95945.02;2148336;83;21232;-78
2020/12/29 07:04:08;;;;;;;3.70;2.60;;;;;;;6.41;75.29;95957.59;2153021;82;21280;-78
2020/12/29 07:07:09;;;;;;;6.10;3.70;;;;;;;6.41;75.41;95959.33;2166548;81;21839;-79
2020/12/29 07:10:10;;;;;;;6.30;3.10;;;;;;;6.39;75.51;95967.98;2172989;82;21248;-79
2020/12/29 07:13:11;;;;;;;6.17;3.20;;;;;;;6.38;75.53;95974.05;2173395;82;21126;-77
2020/12/29 07:16:12;;;;;;;8.20;3.57;;;;;;;6.38;75.35;95983.55;2173068;82;21236;-78
2020/12/29 07:19:14;;;;;;;20.77;8.47;;;;;;;6.37;75.50;95991.77;2173394;82;21240;-78
2020/12/29 07:22:15;;;;;;;62.30;19.53;;;;;;;6.39;75.63;96010.73;2173242;82;21165;-78
2020/12/29 07:25:16;;;;;;;32.23;8.87;;;;;;;6.39;75.55;96009.44;2172146;82;21154;-78
2020/12/29 07:28:17;;;;;;;18.73;7.33;;;;;;;6.39;75.62;96024.13;2173183;82;21117;-79
2020/12/29 07:31:18;;;;;;;30.53;8.83;;;;;;;6.35;75.81;96029.80;2172557;82;21558;-80
2020/12/29 07:34:19;;;;;;;29.80;8.10;;;;;;;6.35;75.72;96045.34;2172749;82;21260;-78
2020/12/29 07:37:20;;;;;;;20.50;6.20;;;;;;;6.34;76.03;96053.14;2173147;82;21256;-79
2020/12/29 07:40:21;;;;;;;22.60;7.73;;;;;;;6.33;75.88;96074.30;2172707;82;21146;-79
2020/12/29 07:43:22;;;;;;;27.63;9.43;;;;;;;6.32;76.02;96085.55;2172270;82;21157;-77
2020/12/29 07:46:23;;;;;;;9.93;4.40;;;;;;;6.30;75.96;96095.52;2173066;82;21268;-79
2020/12/29 07:49:24;;;;;;;8.00;3.77;;;;;;;6.27;76.22;96113.26;2172202;82;21381;-78
2020/12/29 07:52:25;;;;;;;4.23;3.03;;;;;;;6.21;76.12;96114.64;2172157;82;21122;-79
2020/12/29 07:55:27;;;;;;;10.07;3.33;;;;;;;6.15;76.22;96116.03;2172437;82;21237;-80
2020/12/29 07:58:29;;;;;;;6.37;3.00;;;;;;;6.08;76.47;96132.97;2173311;82;21317;-79
2020/12/29 08:01:30;;;;;;;4.83;2.90;;;;;;;6.02;76.64;96135.17;2172809;82;21233;-79
2020/12/29 08:04:31;;;;;;;4.37;2.93;;;;;;;5.92;76.33;96145.23;2172490;81;21291;-80
2020/12/29 08:07:32;;;;;;;5.93;3.07;;;;;;;5.75;75.97;96165.69;2172526;82;21416;-80
2020/12/29 08:10:33;;;;;;;6.17;4.03;;;;;;;5.60;75.87;96180.09;2172246;82;21144;-78
2020/12/29 08:13:34;;;;;;;8.33;3.23;;;;;;;5.47;76.36;96191.89;2172202;82;21237;-77
2020/12/29 08:16:35;;;;;;;5.80;3.00;;;;;;;5.33;76.55;96206.26;2172375;82;21186;-79
2020/12/29 08:19:36;;;;;;;5.63;2.97;;;;;;;5.20;77.04;96224.02;2172419;82;21249;-79
2020/12/29 08:22:37;;;;;;;4.07;2.90;;;;;;;5.07;77.19;96239.64;2172037;82;21253;-79
2020/12/29 08:25:39;;;;;;;5.07;3.43;;;;;;;4.94;77.14;96251.39;2172748;82;21799;-79
2020/12/29 08:28:40;;;;;;;5.73;3.33;;;;;;;4.87;77.22;96262.20;2172361;82;21122;-78
2020/12/29 08:31:41;;;;;;;3.97;2.73;;;;;;;4.84;76.98;96273.86;2171558;82;21141;-76
2020/12/29 08:34:42;;;;;;;5.03;2.90;;;;;;;4.80;76.99;96274.75;2171697;82;21164;-78
2020/12/29 08:37:43;;;;;;;6.87;3.73;;;;;;;4.73;76.96;96291.16;2172051;82;21236;-79
2020/12/29 08:40:44;;;;;;;7.53;4.20;;;;;;;4.64;76.98;96289.48;2172267;82;21479;-80
2020/12/29 08:43:45;;;;;;;7.20;4.27;;;;;;;4.68;76.78;96296.79;2172486;82;22108;-78
2020/12/29 08:46:46;;;;;;;5.73;4.17;;;;;;;4.71;76.77;96300.65;2172694;82;21126;-79
2020/12/29 08:49:47;;;;;;;5.40;4.07;;;;;;;4.73;76.87;96304.94;2173465;82;21118;-79
2020/12/29 08:52:48;;;;;;;6.07;4.20;;;;;;;4.77;76.83;96318.27;2172728;82;21237;-78
2020/12/29 08:55:49;;;;;;;5.90;4.20;;;;;;;4.79;76.85;96325.58;2173042;82;21119;-79
2020/12/29 08:58:50;;;;;;;9.87;4.90;;;;;;;4.82;76.79;96328.58;2172510;82;21162;-79
2020/12/29 09:01:52;;;;;;;9.67;5.60;;;;;;;4.87;76.55;96328.55;2171648;82;21094;-79
2020/12/29 09:04:53;;;;;;;9.43;5.67;;;;;;;4.95;76.39;96341.00;2173996;81;21285;-79
2020/12/29 09:07:55;;;;;;;6.73;5.07;;;;;;;4.99;76.21;96352.60;2172586;82;21102;-78
2020/12/29 09:10:56;;;;;;;8.77;5.33;;;;;;;5.01;76.17;96373.27;2172484;82;21082;-79
2020/12/29 09:13:58;;;;;;;8.30;5.53;;;;;;;5.05;76.23;96379.71;2172128;82;21253;-78
2020/12/29 09:16:59;;;;;;;7.80;5.53;;;;;;;5.02;75.99;96392.66;2172423;82;21245;-78
2020/12/29 09:20:00;;;;;;;6.37;5.07;;;;;;;5.03;76.16;96408.59;2172062;82;21245;-78
2020/12/29 09:23:01;;;;;;;10.40;6.90;;;;;;;5.05;75.76;96413.33;2172337;82;21288;-79
2020/12/29 09:26:03;;;;;;;8.97;5.93;;;;;;;5.15;75.55;96401.20;2172510;82;21327;-78
2020/12/29 09:29:04;;;;;;;8.77;6.83;;;;;;;5.27;75.15;96405.47;2171862;82;21242;-79
2020/12/29 09:32:05;;;;;;;10.20;7.57;;;;;;;;;;2172601;82;21252;-78
2020/12/29 09:35:25;;;;;;;10.10;6.33;;;;;;;5.42;74.70;96422.19;2172106;82;21114;-79
2020/12/29 09:38:26;;;;;;;12.77;7.83;;;;;;;5.52;74.42;96423.84;2172589;82;21110;-81
2020/12/29 09:41:27;;;;;;;10.93;8.53;;;;;;;5.58;74.00;96432.00;2173016;82;21274;-79
2020/12/29 09:44:28;;;;;;;11.77;9.17;;;;;;;5.59;74.00;96452.69;2172474;82;21354;-78
2020/12/29 09:47:29;;;;;;;10.87;8.40;;;;;;;5.61;73.45;96460.44;2172641;82;21091;-79
2020/12/29 09:50:31;;;;;;;12.77;8.80;;;;;;;5.59;73.28;96467.36;2172869;82;21232;-78
2020/12/29 09:53:32;;;;;;;14.20;9.93;;;;;;;5.58;72.93;96463.05;2173669;82;21091;-78
2020/12/29 09:56:33;;;;;;;15.50;9.93;;;;;;;5.67;73.11;96469.02;2173334;82;21141;-78
2020/12/29 09:59:34;;;;;;;15.27;9.93;;;;;;;5.80;73.09;96478.00;2173030;82;21225;-78
2020/12/29 10:02:35;;;;;;;14.60;10.43;;;;;;;5.91;72.26;96496.94;2173278;82;21267;-79
2020/12/29 10:05:37;;;;;;;13.67;10.20;;;;;;;5.98;71.66;96511.12;2172371;81;21256;-79
2020/12/29 10:08:41;;;;;;;13.03;9.75;;;;;;;6.04;71.12;96514.95;2172430;82;21154;-78
2020/12/29 10:11:42;;;;;;;15.13;10.63;;;;;;;6.13;70.78;96527.01;2172613;82;21424;-78
2020/12/29 10:14:43;;;;;;;14.60;10.03;;;;;;;6.12;69.75;96527.88;2173153;82;21106;-79
2020/12/29 10:17:44;;;;;;;15.20;10.77;;;;;;;6.16;70.35;96545.12;2173079;82;21142;-79
2020/12/29 10:20:45;;;;;;;15.00;11.07;;;;;;;6.20;69.92;96548.11;2172906;82;21569;-78
2020/12/29 10:23:46;;;;;;;14.63;10.23;;;;;;;6.24;69.90;96556.28;2172921;82;21150;-79
2020/12/29 10:26:48;;;;;;;15.40;9.73;;;;;;;6.24;68.54;96561.46;2172831;82;21117;-79
2020/12/29 10:29:49;;;;;;;11.80;8.03;;;;;;;6.24;68.88;96573.12;2172365;82;21107;-79
2020/12/29 10:32:50;;;;;;;13.67;9.03;;;;;;;6.26;68.11;96583.47;2172336;82;21134;-80
2020/12/29 10:35:51;;;;;;;12.53;8.73;;;;;;;6.32;68.44;96588.61;2172130;82;21208;-79
2020/12/29 10:38:52;;;;;;;16.03;9.30;;;;;;;6.39;67.58;96607.98;2172702;82;21157;-79
2020/12/29 10:41:53;;;;;;;12.73;8.53;;;;;;;6.39;67.58;96607.98;2172680;82;21245;-78
2020/12/29 10:44:54;;;;;;;13.00;7.50;;;;;;;6.44;67.34;96609.68;2172984;82;21169;-80
2020/12/29 10:47:55;;;;;;;11.33;6.93;;;;;;;6.46;65.53;96601.45;2173015;82;21082;-80
2020/12/29 10:50:56;;;;;;;13.53;7.90;;;;;;;6.56;66.56;96627.73;2173762;81;21154;-78
2020/12/29 10:53:57;;;;;;;11.37;7.77;;;;;;;6.56;66.56;96627.73;2165487;82;21249;-79
2020/12/29 10:56:58;;;;;;;14.97;8.30;;;;;;;6.63;66.54;96628.97;2163003;82;21245;-79
2020/12/29 10:59:59;;;;;;;13.07;7.97;;;;;;;6.68;65.83;96626.33;2162435;82;21110;-78
2020/12/29 11:03:00;;;;;;;12.47;7.43;;;;;;;6.78;65.71;96643.53;2161894;82;21324;-78
2020/12/29 11:06:02;;;;;;;14.03;7.73;;;;;;;6.78;65.71;96643.53;2167355;81;21265;-78
2020/12/29 11:09:03;;;;;;;11.73;8.00;;;;;;;6.80;64.19;96644.38;2172187;82;21856;-78
2020/12/29 11:12:04;;;;;;;12.30;6.80;;;;;;;6.83;65.26;96651.27;2171934;82;21126;-79
2020/12/29 11:15:05;;;;;;;11.97;8.50;;;;;;;6.88;64.33;96663.77;2172306;81;21119;-79
2020/12/29 11:18:06;;;;;;;12.13;7.87;;;;;;;6.89;64.93;96671.97;2172582;81;21145;-78
2020/12/29 11:21:07;;;;;;;12.93;7.60;;;;;;;6.86;63.94;96675.45;2172658;81;21387;-79
2020/12/29 11:24:08;;;;;;;13.43;7.50;;;;;;;6.89;64.17;96688.39;2173021;81;21281;-79
2020/12/29 11:27:09;;;;;;;15.97;8.07;;;;;;;6.89;64.17;96688.39;2173087;82;21175;-79
2020/12/29 11:30:10;;;;;;;11.80;7.23;;;;;;;6.89;62.93;96702.65;2172991;81;21427;-80
2020/12/29 11:33:11;;;;;;;9.33;6.20;;;;;;;6.89;62.35;96701.36;2172996;82;21145;-79
2020/12/29 11:36:12;;;;;;;8.90;5.63;;;;;;;6.88;62.79;96712.60;2173732;82;21090;-81
2020/12/29 11:39:13;;;;;;;8.10;5.43;;;;;;;6.91;62.50;96724.25;2173304;82;21122;-80
2020/12/29 11:42:14;;;;;;;10.80;6.43;;;;;;;6.94;62.63;96715.18;2173252;82;21163;-80
2020/12/29 11:45:15;;;;;;;9.87;6.07;;;;;;;6.94;62.62;96728.14;2173415;81;21166;-80
2020/12/29 11:48:17;;;;;;;9.47;6.50;;;;;;;6.96;60.14;96730.30;2173383;82;21676;-79
2020/12/29 11:51:18;;;;;;;10.37;6.10;;;;;;;6.99;61.97;96736.75;2172772;82;21138;-79
2020/12/29 11:54:19;;;;;;;7.37;5.13;;;;;;;7.06;62.34;96766.10;2173183;81;21744;-78
2020/12/29 11:57:20;;;;;;;7.27;5.10;;;;;;;7.05;60.16;96747.95;2172692;82;21086;-79
2020/12/29 12:00:21;;;;;;;7.47;5.23;;;;;;;7.08;59.46;96759.17;2172688;82;21094;-79
2020/12/29 12:03:23;;;;;;;8.63;5.00;;;;;;;7.09;60.25;96758.73;2172846;81;21166;-79
2020/12/29 12:06:24;;;;;;;7.60;5.30;;;;;;;7.13;60.78;96767.78;2172252;81;21150;-78
2020/12/29 12:09:25;;;;;;;7.97;5.47;;;;;;;7.17;60.37;96780.29;2171885;81;21728;-79
2020/12/29 12:12:26;;;;;;;7.73;4.60;;;;;;;7.22;60.08;96790.20;2172006;81;21400;-76
2020/12/29 12:15:27;;;;;;;7.10;4.83;;;;;;;7.22;60.08;96790.20;2172778;81;21090;-79
2020/12/29 12:18:28;;;;;;;5.93;4.20;;;;;;;7.29;59.14;96795.77;2173341;82;21142;-80
2020/12/29 12:21:29;;;;;;;7.93;4.33;;;;;;;7.32;58.33;96798.33;2172746;82;21130;-79
2020/12/29 12:24:30;;;;;;;9.63;4.40;;;;;;;7.35;57.99;96793.12;2172851;82;21158;-78
2020/12/29 12:27:31;;;;;;;9.20;4.10;;;;;;;7.40;59.03;96804.76;2172363;81;21150;-78
2020/12/29 12:30:33;;;;;;;7.37;4.37;;;;;;;7.41;56.54;96809.08;2172957;82;21090;-77
2020/12/29 12:33:34;;;;;;;7.33;4.30;;;;;;;7.42;57.63;96818.59;2171586;81;21126;-78
2020/12/29 12:36:35;;;;;;;6.93;3.97;;;;;;;7.45;58.05;96816.83;2172081;82;21122;-79
2020/12/29 12:39:36;;;;;;;6.10;4.30;;;;;;;7.46;56.60;96821.14;2171561;82;21812;-76
2020/12/29 12:42:37;;;;;;;6.43;3.83;;;;;;;7.49;57.40;96815.06;2171644;82;21132;-78
2020/12/29 12:45:38;;;;;;;4.47;3.57;;;;;;;7.48;56.97;96833.67;2170662;81;21320;-77
2020/12/29 12:48:39;;;;;;;4.90;3.37;;;;;;;7.48;56.97;96833.67;2171623;82;21423;-77
2020/12/29 12:51:40;;;;;;;5.53;3.53;;;;;;;7.47;56.25;96838.44;2171674;82;21090;-77
2020/12/29 12:54:41;;;;;;;8.17;4.37;;;;;;;7.45;55.18;96837.59;2171363;82;21233;-77
2020/12/29 12:57:42;;;;;;;5.30;3.60;;;;;;;7.47;56.05;96848.83;2171373;81;21149;-78
2020/12/29 13:00:43;;;;;;;4.37;3.10;;;;;;;7.45;55.09;96853.60;2171127;82;21459;-78
2020/12/29 13:03:45;;;;;;;6.93;3.30;;;;;;;7.44;55.38;96855.34;2170076;82;21391;-77
2020/12/29 13:06:46;;;;;;;6.53;3.60;;;;;;;7.42;56.01;96866.17;2164376;81;21269;-76
2020/12/29 13:09:47;;;;;;;10.53;3.53;;;;;;;7.43;55.86;96874.38;2159806;81;21241;-78
2020/12/29 13:12:48;;;;;;;7.90;4.23;;;;;;;7.47;55.34;96881.71;2160085;82;21252;-79
2020/12/29 13:15:49;;;;;;;8.13;4.40;;;;;;;7.50;55.79;96894.67;2160618;82;21241;-78
2020/12/29 13:18:50;;;;;;;6.97;4.17;;;;;;;7.45;56.23;96905.08;2161057;82;21234;-76
2020/12/29 13:21:51;;;;;;;6.90;4.40;;;;;;;7.42;56.06;96908.14;2161724;82;21118;-77
2020/12/29 13:24:53;;;;;;;5.80;3.97;;;;;;;7.40;55.27;96914.64;2161265;82;21292;-77
2020/12/29 13:27:54;;;;;;;9.80;4.63;;;;;;;7.33;55.64;96918.14;2161589;82;21126;-78
2020/12/29 13:30:55;;;;;;;7.50;4.03;;;;;;;7.28;56.33;96930.28;2162038;82;21241;-78
2020/12/29 13:33:56;;;;;;;6.67;3.83;;;;;;;7.23;56.05;96939.83;2161360;82;21237;-77
2020/12/29 13:36:57;;;;;;;9.87;4.77;;;;;;;7.17;56.14;96936.83;2160699;82;21508;-78
2020/12/29 13:39:58;;;;;;;12.80;4.17;;;;;;;7.13;56.57;96949.83;2160837;82;21269;-77
2020/12/29 13:43:00;;;;;;;7.67;4.37;;;;;;;7.09;55.58;96970.17;2160886;82;21249;-77
2020/12/29 13:46:01;;;;;;;6.03;3.77;;;;;;;6.98;56.40;96979.30;2161315;82;21241;-77
2020/12/29 13:49:03;;;;;;;11.73;4.40;;;;;;;6.98;56.40;96979.30;2160708;82;21098;-77
2020/12/29 13:52:04;;;;;;;10.37;4.80;;;;;;;6.97;56.55;96990.10;2161405;82;21252;-77
2020/12/29 13:55:05;;;;;;;8.30;5.07;;;;;;;6.93;57.26;96995.27;2162090;82;21238;-77
2020/12/29 13:58:06;;;;;;;10.00;5.03;;;;;;;6.85;57.45;97010.86;2162309;82;21237;-77
2020/12/29 14:01:07;;;;;;;33.73;6.53;;;;;;;6.76;57.74;97008.73;2161838;82;21257;-76
2020/12/29 14:04:08;;;;;;;14.03;7.00;;;;;;;6.66;58.22;97022.14;2159866;82;21304;-77
2020/12/29 14:07:09;;;;;;;12.63;6.60;;;;;;;6.57;58.46;97029.50;2168737;81;21269;-77
2020/12/29 14:10:10;;;;;;;12.80;7.03;;;;;;;6.49;58.58;97035.56;2177966;81;21235;-77
2020/12/29 14:13:12;;;;;;;18.67;7.47;;;;;;;6.41;59.07;97039.89;2178761;82;21236;-77
2020/12/29 14:16:13;;;;;;;11.23;6.83;;;;;;;6.31;59.10;97048.97;2178482;81;21086;-76
2020/12/29 14:19:14;;;;;;;15.23;9.10;;;;;;;6.23;59.16;97055.88;2174787;81;21330;-77